Time;durP1;ratioP1;P1;durP2;ratioP2;P2;SDS_P1;SDS_P2;PMS_P1;PMS_P2;Temp;Humidity;BMP_temperature;BMP_pressure;BME280_temperature;BME280_humidity;BME280_pressure;Samples;Min_cycle;Max_cycle;Signal;HPM_P1;HPM_P2
2020/12/26 00:02:08;;;;;;;25.07;23.37;;;1.50;1.00;;;;;;5074183;28;20200;-76
2020/12/26 00:04:36;;;;;;;24.83;23.17;;;1.50;1.00;;;;;;5074533;28;20222;-76
2020/12/26 00:07:05;;;;;;;29.80;27.50;;;1.60;1.00;;;;;;5074128;28;20663;-76
2020/12/26 00:09:30;;;;;;;25.45;24.08;;;1.60;1.00;;;;;;5074131;28;20199;-76
2020/12/26 00:11:56;;;;;;;29.97;27.87;;;1.60;1.00;;;;;;5074097;28;20639;-76
2020/12/26 00:14:27;;;;;;;24.80;23.03;;;1.70;1.00;;;;;;5074384;28;20395;-76
2020/12/26 00:16:54;;;;;;;23.50;21.70;;;1.70;1.00;;;;;;5074054;28;20659;-76
2020/12/26 00:19:20;;;;;;;25.58;23.67;;;1.70;1.00;;;;;;5073813;28;20215;-76
2020/12/26 00:21:45;;;;;;;21.00;19.60;;;1.70;1.00;;;;;;5073954;28;20256;-76
2020/12/26 00:24:11;;;;;;;25.50;23.77;;;1.70;1.00;;;;;;5074636;28;20169;-76
2020/12/26 00:26:36;;;;;;;26.70;24.70;;;1.70;1.00;;;;;;5074074;28;20161;-76
2020/12/26 00:29:02;;;;;;;23.23;21.27;;;1.60;1.00;;;;;;5073845;28;20192;-76
2020/12/26 00:31:27;;;;;;;25.50;24.07;;;1.70;1.00;;;;;;5072536;28;20183;-76
2020/12/26 00:33:53;;;;;;;27.00;25.27;;;1.70;1.00;;;;;;5073751;28;20665;-76
2020/12/26 00:36:18;;;;;;;35.13;32.63;;;1.70;1.00;;;;;;5073593;28;20177;-76
2020/12/26 00:38:44;;;;;;;24.67;23.07;;;1.80;1.00;;;;;;5073625;28;20196;-76
2020/12/26 00:41:13;;;;;;;24.67;22.93;;;1.80;1.00;;;;;;5073614;28;20595;-76
2020/12/26 00:43:39;;;;;;;23.15;21.02;;;1.80;1.00;;;;;;5073971;28;20173;-76
2020/12/26 00:46:04;;;;;;;23.27;21.87;;;1.80;1.00;;;;;;5073624;28;20173;-76
2020/12/26 00:48:30;;;;;;;24.53;22.50;;;1.80;1.00;;;;;;5073530;28;20208;-75
2020/12/26 00:50:56;;;;;;;24.70;22.43;;;1.80;1.00;;;;;;5072220;28;20519;-75
2020/12/26 00:53:21;;;;;;;27.53;25.63;;;1.80;1.00;;;;;;5073547;28;20161;-75
2020/12/26 00:55:47;;;;;;;31.60;29.80;;;1.80;1.00;;;;;;5073564;28;20253;-76
2020/12/26 00:58:12;;;;;;;32.83;30.53;;;1.80;1.00;;;;;;5073392;28;20193;-76
2020/12/26 01:00:38;;;;;;;30.17;28.40;;;1.90;1.00;;;;;;5073375;28;20165;-76
2020/12/26 01:03:03;;;;;;;28.80;26.63;;;1.90;1.00;;;;;;5073424;28;20260;-76
2020/12/26 01:05:29;;;;;;;24.17;22.77;;;1.90;1.00;;;;;;5073415;28;20697;-76
2020/12/26 01:07:54;;;;;;;26.00;24.70;;;1.80;1.00;;;;;;5072116;28;20192;-76
2020/12/26 01:10:20;;;;;;;28.27;26.53;;;1.80;1.00;;;;;;5073267;28;20165;-76
2020/12/26 01:12:46;;;;;;;26.10;24.90;;;1.90;1.00;;;;;;5073388;28;20542;-76
2020/12/26 01:15:11;;;;;;;24.20;23.10;;;1.80;1.00;;;;;;5073328;28;20176;-76
2020/12/26 01:17:37;;;;;;;27.73;26.50;;;1.90;1.00;;;;;;5073304;28;20197;-76
2020/12/26 01:20:03;;;;;;;18.10;17.03;;;1.90;1.00;;;;;;5071952;28;20643;-76
2020/12/26 01:22:28;;;;;;;18.17;17.00;;;1.90;1.00;;;;;;5073303;28;20248;-76
2020/12/26 01:24:54;;;;;;;20.47;18.93;;;2.00;1.00;;;;;;5073217;28;20200;-76
2020/12/26 01:27:20;;;;;;;20.57;18.80;;;2.00;1.00;;;;;;5073157;28;20185;-76
2020/12/26 01:29:46;;;;;;;19.07;17.90;;;2.00;1.00;;;;;;5073335;28;20162;-76
2020/12/26 01:32:12;;;;;;;19.05;18.25;;;2.00;1.00;;;;;;5073154;28;20404;-76
2020/12/26 01:34:38;;;;;;;21.43;20.10;;;2.10;1.00;;;;;;5073129;28;20180;-76
2020/12/26 01:37:03;;;;;;;19.23;17.70;;;2.10;1.00;;;;;;5073471;28;20654;-76
2020/12/26 01:39:29;;;;;;;22.90;21.17;;;2.10;1.00;;;;;;5072981;28;20477;-76
2020/12/26 01:41:55;;;;;;;22.30;20.90;;;2.20;1.00;;;;;;5073097;28;20173;-76
2020/12/26 01:44:21;;;;;;;23.50;22.37;;;2.20;1.00;;;;;;5073056;28;20635;-76
2020/12/26 01:46:50;;;;;;;19.23;17.88;;;2.20;1.00;;;;;;5072897;28;20908;-76
2020/12/26 01:49:17;;;;;;;21.50;20.27;;;2.20;1.00;;;;;;5076818;28;20635;-76
2020/12/26 01:51:44;;;;;;;20.65;19.55;;;2.30;1.00;;;;;;5076845;28;20175;-76
2020/12/26 01:54:10;;;;;;;26.58;25.17;;;2.20;1.00;;;;;;5077102;28;20219;-76
2020/12/26 01:56:39;;;;;;;21.25;19.52;;;2.20;1.00;;;;;;5076689;28;20169;-76
2020/12/26 01:59:04;;;;;;;19.42;18.42;;;2.20;1.00;;;;;;5076651;28;20193;-76
2020/12/26 02:01:35;;;;;;;20.77;19.77;;;2.30;1.00;;;;;;5076447;28;20166;-76
2020/12/26 02:04:01;;;;;;;21.40;20.20;;;2.30;1.00;;;;;;5076680;28;20395;-76
2020/12/26 02:06:35;;;;;;;21.35;20.42;;;2.30;1.00;;;;;;5076452;28;20173;-76
2020/12/26 02:09:01;;;;;;;25.80;24.60;;;2.30;1.00;;;;;;5076558;28;20199;-76
2020/12/26 02:11:27;;;;;;;27.73;26.53;;;2.30;1.00;;;;;;5076439;28;20173;-76
2020/12/26 02:13:53;;;;;;;23.13;22.02;;;2.30;1.00;;;;;;5076703;28;20177;-76
2020/12/26 02:16:19;;;;;;;24.40;23.05;;;2.30;1.00;;;;;;5076418;28;20227;-76
2020/12/26 02:18:45;;;;;;;24.30;23.10;;;2.40;1.00;;;;;;5076328;28;20251;-76
2020/12/26 02:21:10;;;;;;;18.63;17.63;;;2.40;1.00;;;;;;5074977;28;20165;-76
2020/12/26 02:23:46;;;;;;;22.33;21.03;;;2.40;1.00;;;;;;5076296;28;20176;-76
2020/12/26 02:26:12;;;;;;;27.25;25.30;;;2.40;1.00;;;;;;5076298;28;20172;-76
2020/12/26 02:28:39;;;;;;;18.58;17.67;;;2.40;1.00;;;;;;5076131;28;20200;-76
2020/12/26 02:31:05;;;;;;;18.67;17.98;;;2.40;1.00;;;;;;5076422;28;20221;-76
2020/12/26 02:33:32;;;;;;;18.17;17.08;;;2.40;1.00;;;;;;5076105;28;20184;-76
2020/12/26 02:35:58;;;;;;;17.95;17.13;;;2.40;1.00;;;;;;5074779;28;20184;-76
2020/12/26 02:38:23;;;;;;;18.73;17.90;;;2.50;1.00;;;;;;5074623;28;20209;-76
2020/12/26 02:40:49;;;;;;;20.23;19.23;;;2.50;1.00;;;;;;5075960;28;20498;-76
2020/12/26 02:43:21;;;;;;;19.40;18.30;;;2.50;1.00;;;;;;5075980;28;20161;-76
2020/12/26 02:45:48;;;;;;;21.90;20.83;;;2.50;1.00;;;;;;5076187;28;20460;-76
2020/12/26 02:48:13;;;;;;;19.70;18.50;;;2.50;1.00;;;;;;5075897;28;20197;-76
2020/12/26 02:50:39;;;;;;;20.13;19.23;;;2.50;1.00;;;;;;5075932;28;20218;-76
2020/12/26 02:53:04;;;;;;;18.10;17.00;;;2.50;1.00;;;;;;5076032;28;20195;-76
2020/12/26 02:55:30;;;;;;;18.50;17.17;;;2.50;1.00;;;;;;5074484;28;20177;-76
2020/12/26 02:57:56;;;;;;;24.90;23.70;;;2.50;1.00;;;;;;5075666;28;20201;-76
2020/12/26 03:00:21;;;;;;;23.67;22.53;;;2.50;1.00;;;;;;5075603;28;20168;-76
2020/12/26 03:02:47;;;;;;;21.13;20.17;;;2.50;1.00;;;;;;5075766;28;20181;-76
2020/12/26 03:05:12;;;;;;;30.47;28.97;;;2.50;1.00;;;;;;5075847;28;20176;-76
2020/12/26 03:07:38;;;;;;;20.83;19.50;;;2.50;1.00;;;;;;5075677;28;20280;-76
2020/12/26 03:10:04;;;;;;;19.27;18.40;;;2.50;1.00;;;;;;5075736;28;20223;-76
2020/12/26 03:12:29;;;;;;;22.55;21.55;;;2.60;1.00;;;;;;5074294;28;20176;-76
2020/12/26 03:14:55;;;;;;;21.63;20.83;;;2.60;1.00;;;;;;5075748;28;20184;-76
2020/12/26 03:17:20;;;;;;;28.40;26.97;;;2.60;1.00;;;;;;5075374;28;20280;-76
2020/12/26 03:19:46;;;;;;;24.97;23.77;;;2.60;1.00;;;;;;5075598;28;20248;-76
2020/12/26 03:22:12;;;;;;;19.70;18.90;;;2.60;1.00;;;;;;5075526;28;20161;-76
2020/12/26 03:24:37;;;;;;;19.97;19.17;;;2.60;1.00;;;;;;5075562;28;20174;-76
2020/12/26 03:27:03;;;;;;;20.20;19.20;;;2.70;1.00;;;;;;5075537;28;20212;-76
2020/12/26 03:29:28;;;;;;;25.20;24.30;;;2.70;1.00;;;;;;5075206;28;20173;-76
2020/12/26 03:31:54;;;;;;;25.77;24.77;;;2.60;1.00;;;;;;5075179;28;20667;-76
2020/12/26 03:34:20;;;;;;;20.40;19.67;;;2.70;1.00;;;;;;5073913;28;20550;-76
2020/12/26 03:36:45;;;;;;;22.07;20.90;;;2.70;1.00;;;;;;5076011;28;20193;-76
2020/12/26 03:39:11;;;;;;;25.00;24.00;;;2.70;1.00;;;;;;5074958;28;20200;-76
2020/12/26 03:41:37;;;;;;;22.23;21.13;;;2.70;1.00;;;;;;5073868;28;20169;-76
2020/12/26 03:44:02;;;;;;;20.27;19.27;;;2.70;1.00;;;;;;5075286;28;20166;-76
2020/12/26 03:46:28;;;;;;;19.23;17.93;;;2.70;1.00;;;;;;5074641;28;20196;-76
2020/12/26 03:48:53;;;;;;;27.50;26.50;;;2.60;1.00;;;;;;5074844;28;20644;-76
2020/12/26 03:51:19;;;;;;;20.40;19.50;;;2.70;1.00;;;;;;5075029;28;20531;-76
2020/12/26 03:53:45;;;;;;;17.67;16.50;;;2.70;1.00;;;;;;5074797;28;20192;-76
2020/12/26 03:56:16;;;;;;;14.60;13.90;;;2.60;1.00;;;;;;5075611;28;20176;-76
2020/12/26 03:58:41;;;;;;;18.88;17.92;;;2.60;1.00;;;;;;5074848;28;20732;-76
2020/12/26 04:01:07;;;;;;;17.90;16.97;;;2.60;1.00;;;;;;5074792;28;20178;-76
2020/12/26 04:03:33;;;;;;;25.40;24.20;;;2.60;1.00;;;;;;5074459;28;20664;-77
2020/12/26 04:05:59;;;;;;;21.45;20.35;;;2.60;1.00;;;;;;5074743;28;20161;-77
2020/12/26 04:08:24;;;;;;;22.73;21.50;;;2.60;1.00;;;;;;5074623;28;20243;-77
2020/12/26 04:10:50;;;;;;;19.50;18.40;;;2.60;1.00;;;;;;5073957;28;20180;-76
2020/12/26 04:13:15;;;;;;;24.27;23.03;;;2.60;1.00;;;;;;5074758;28;20184;-76
2020/12/26 04:15:41;;;;;;;19.13;17.40;;;2.60;1.00;;;;;;5074207;28;20172;-76
2020/12/26 04:18:07;;;;;;;25.67;24.50;;;2.60;1.00;;;;;;5074116;28;20239;-76
2020/12/26 04:20:32;;;;;;;23.53;22.03;;;2.60;1.00;;;;;;5074276;28;20199;-76
2020/12/26 04:22:58;;;;;;;19.97;18.87;;;2.60;1.00;;;;;;5074505;28;20176;-76
2020/12/26 04:25:23;;;;;;;21.73;20.63;;;2.60;1.00;;;;;;5074213;28;20165;-76
2020/12/26 04:27:49;;;;;;;18.77;17.77;;;2.50;1.00;;;;;;5074348;28;20281;-76
2020/12/26 04:30:15;;;;;;;17.85;16.75;;;2.60;1.00;;;;;;5074077;28;20165;-76
2020/12/26 04:32:41;;;;;;;17.53;16.40;;;2.60;1.00;;;;;;5074193;28;20539;-76
2020/12/26 04:35:06;;;;;;;19.03;17.93;;;2.60;1.00;;;;;;5074098;28;20174;-76
2020/12/26 04:37:32;;;;;;;20.80;19.80;;;2.60;1.00;;;;;;5073797;28;20282;-76
2020/12/26 04:39:57;;;;;;;19.40;18.50;;;2.60;1.00;;;;;;5073900;28;20639;-76
2020/12/26 04:42:23;;;;;;;22.93;21.67;;;2.70;1.00;;;;;;5074074;28;20169;-76
2020/12/26 04:44:51;;;;;;;18.48;17.48;;;2.70;1.00;;;;;;5074386;28;20678;-76
2020/12/26 04:47:30;;;;;;;19.75;18.38;;;2.70;1.00;;;;;;5074058;28;20250;-76
2020/12/26 04:50:01;;;;;;;21.98;20.67;;;2.70;1.00;;;;;;5073907;28;20149;-76
2020/12/26 04:52:29;;;;;;;21.60;20.40;;;2.70;1.00;;;;;;5073859;28;20158;-76
2020/12/26 04:54:55;;;;;;;21.17;20.17;;;2.70;1.00;;;;;;5073926;28;20295;-76
2020/12/26 04:57:22;;;;;;;24.88;23.42;;;2.70;1.00;;;;;;5073511;28;20189;-76
2020/12/26 04:59:48;;;;;;;16.90;16.10;;;2.70;1.00;;;;;;5073491;28;20165;-76
2020/12/26 05:02:15;;;;;;;19.95;18.95;;;2.70;1.00;;;;;;5073502;28;20663;-76
2020/12/26 05:04:42;;;;;;;16.90;15.90;;;2.70;1.00;;;;;;5073717;28;20215;-76
2020/12/26 05:07:08;;;;;;;15.82;14.63;;;2.70;1.00;;;;;;5073597;28;20196;-76
2020/12/26 05:09:33;;;;;;;18.60;17.30;;;2.70;1.00;;;;;;5073463;28;20165;-76
2020/12/26 05:12:00;;;;;;;19.67;18.73;;;2.70;1.00;;;;;;5073532;28;20181;-76
2020/12/26 05:14:29;;;;;;;16.38;15.48;;;2.60;1.00;;;;;;5073460;28;20187;-76
2020/12/26 05:16:55;;;;;;;14.80;13.68;;;2.60;1.00;;;;;;5073435;28;20188;-76
2020/12/26 05:19:22;;;;;;;16.43;14.97;;;2.60;1.00;;;;;;5073433;28;20197;-76
2020/12/26 05:21:52;;;;;;;16.85;15.80;;;2.60;1.00;;;;;;5073501;28;20219;-76
2020/12/26 05:24:18;;;;;;;17.02;16.13;;;2.60;1.00;;;;;;5077580;28;20177;-76
2020/12/26 05:26:46;;;;;;;15.48;14.60;;;2.60;1.00;;;;;;5077538;28;20195;-76
2020/12/26 05:29:13;;;;;;;23.08;21.67;;;2.60;1.00;;;;;;5077744;28;20651;-76
2020/12/26 05:31:49;;;;;;;22.88;21.55;;;2.60;1.00;;;;;;5076307;28;20662;-76
2020/12/26 05:34:15;;;;;;;22.10;20.25;;;2.60;1.00;;;;;;5077619;28;20168;-76
2020/12/26 05:36:41;;;;;;;18.57;17.67;;;2.70;1.00;;;;;;5077373;28;20180;-76
2020/12/26 05:39:09;;;;;;;16.30;15.32;;;2.70;1.00;;;;;;5076207;28;20257;-76
2020/12/26 05:41:40;;;;;;;12.50;12.00;;;2.70;1.00;;;;;;5077381;28;20496;-76
2020/12/26 05:44:06;;;;;;;17.75;16.23;;;2.70;1.00;;;;;;5076007;28;20169;-76
2020/12/26 05:46:32;;;;;;;15.73;14.70;;;2.70;1.00;;;;;;5077585;28;20172;-76
2020/12/26 05:48:57;;;;;;;18.20;16.97;;;2.70;1.00;;;;;;5075983;28;20256;-76
2020/12/26 05:51:25;;;;;;;16.23;15.50;;;2.70;1.00;;;;;;5077297;28;20433;-76
2020/12/26 05:53:57;;;;;;;19.98;18.88;;;2.70;1.00;;;;;;5077264;28;20183;-76
2020/12/26 05:56:23;;;;;;;19.13;18.13;;;2.70;1.00;;;;;;5075758;28;20197;-77
2020/12/26 05:58:49;;;;;;;20.10;18.92;;;2.70;1.00;;;;;;5077104;28;20188;-78
2020/12/26 06:01:21;;;;;;;25.80;24.70;;;2.70;1.00;;;;;;5077065;28;20655;-78
2020/12/26 06:03:47;;;;;;;22.50;21.50;;;2.60;1.00;;;;;;5075885;28;20173;-78
2020/12/26 06:06:15;;;;;;;22.02;20.83;;;2.60;1.00;;;;;;5076887;28;20199;-78
2020/12/26 06:08:41;;;;;;;19.55;18.48;;;2.60;1.00;;;;;;5077033;28;20275;-78
2020/12/26 06:11:07;;;;;;;19.60;17.80;;;2.70;1.00;;;;;;5077046;28;20177;-78
2020/12/26 06:13:37;;;;;;;19.38;18.58;;;2.60;1.00;;;;;;5076874;28;20177;-78
2020/12/26 06:16:11;;;;;;;20.48;18.42;;;2.70;1.00;;;;;;5077170;28;20261;-78
2020/12/26 06:18:41;;;;;;;20.60;19.75;;;2.70;1.00;;;;;;5077140;28;20287;-78
2020/12/26 06:21:08;;;;;;;22.30;20.80;;;2.70;1.00;;;;;;5076743;28;20623;-79
2020/12/26 06:23:38;;;;;;;20.40;19.48;;;2.80;1.00;;;;;;5076816;28;20161;-79
2020/12/26 06:26:05;;;;;;;25.58;23.55;;;2.80;1.00;;;;;;5077101;28;20227;-79
2020/12/26 06:28:32;;;;;;;18.70;17.70;;;2.80;1.00;;;;;;5076708;28;20181;-79
2020/12/26 06:31:05;;;;;;;21.98;20.88;;;2.70;1.00;;;;;;5076707;28;20200;-79
2020/12/26 06:33:38;;;;;;;17.85;16.75;;;2.70;1.00;;;;;;5076073;28;20192;-79
2020/12/26 06:36:05;;;;;;;22.20;20.90;;;2.70;1.00;;;;;;5076913;28;20615;-79
2020/12/26 06:38:31;;;;;;;22.75;21.17;;;2.80;1.00;;;;;;5075075;28;20296;-79
2020/12/26 06:41:03;;;;;;;17.02;16.02;;;2.80;1.00;;;;;;5076238;28;20640;-78
2020/12/26 06:43:50;;;;;;;14.05;13.20;;;2.80;1.00;;;;;;5076938;28;20157;-78
2020/12/26 06:46:22;;;;;;;17.63;16.73;;;2.80;1.00;;;;;;5075527;28;20188;-79
2020/12/26 06:48:54;;;;;;;20.58;19.40;;;2.70;1.00;;;;;;5076159;28;20222;-79
2020/12/26 06:51:26;;;;;;;18.48;17.17;;;2.70;1.00;;;;;;5076444;28;20268;-78
2020/12/26 06:53:54;;;;;;;19.63;18.17;;;2.70;1.00;;;;;;5076080;28;20169;-79
2020/12/26 06:56:32;;;;;;;18.17;16.90;;;2.70;1.00;;;;;;5074711;28;20177;-79
2020/12/26 06:59:02;;;;;;;18.60;17.45;;;2.80;1.00;;;;;;5076129;28;20199;-79
2020/12/26 07:01:28;;;;;;;21.30;19.98;;;2.80;1.00;;;;;;5076073;28;20171;-79
2020/12/26 07:04:17;;;;;;;23.15;21.75;;;2.70;1.00;;;;;;5076723;28;20157;-79
2020/12/26 07:06:49;;;;;;;21.95;21.15;;;2.70;1.00;;;;;;5076079;28;20172;-79
2020/12/26 07:09:17;;;;;;;20.70;19.25;;;2.70;1.00;;;;;;5076306;28;20162;-79
2020/12/26 07:11:43;;;;;;;25.13;23.63;;;2.70;1.00;;;;;;5076370;28;20509;-79
2020/12/26 07:14:09;;;;;;;29.70;28.40;;;2.80;1.00;;;;;;5074833;28;20658;-79
2020/12/26 07:16:46;;;;;;;30.90;29.60;;;2.80;1.00;;;;;;5076329;28;20177;-79
2020/12/26 07:19:31;;;;;;;29.50;28.30;;;2.80;1.00;;;;;;5075857;28;20230;-79
2020/12/26 07:22:02;;;;;;;29.75;28.25;;;2.80;1.00;;;;;;5076006;28;20162;-78
2020/12/26 07:24:40;;;;;;;22.70;21.50;;;2.70;1.00;;;;;;5060387;28;20180;-79
2020/12/26 07:27:18;;;;;;;30.58;28.10;;;2.70;1.00;;;;;;5054324;28;20197;-78
2020/12/26 07:30:11;;;;;;;27.45;26.10;;;2.80;1.00;;;;;;5055064;28;20193;-79
2020/12/26 07:32:43;;;;;;;29.92;28.33;;;2.80;1.00;;;;;;5056386;28;20164;-79
2020/12/26 07:35:11;;;;;;;30.75;29.42;;;2.80;1.00;;;;;;5055667;28;20571;-78
2020/12/26 07:37:38;;;;;;;30.48;29.27;;;2.80;1.00;;;;;;5056548;28;20212;-78
2020/12/26 07:40:05;;;;;;;31.02;29.73;;;2.90;1.00;;;;;;5058017;28;20178;-78
2020/12/26 07:47:43;;;;;;;32.30;30.52;;;2.90;1.00;;;;;;5566842;23;20247;-78
2020/12/26 07:50:10;;;;;;;33.38;31.45;;;2.90;1.00;;;;;;5083188;28;20165;-78
2020/12/26 07:52:36;;;;;;;38.35;36.35;;;2.90;1.00;;;;;;5087801;28;20156;-78
2020/12/26 07:55:05;;;;;;;40.45;37.85;;;2.90;1.00;;;;;;5086635;28;20181;-78
2020/12/26 07:57:33;;;;;;;32.88;31.00;;;2.90;1.00;;;;;;5087365;28;20193;-78
2020/12/26 08:01:00;;;;;;;34.10;32.35;;;2.90;1.00;;;;;;5087485;28;20177;-78
2020/12/26 08:04:12;;;;;;;31.65;30.08;;;3.00;1.00;;;;;;5092130;28;20236;-78
2020/12/26 08:06:57;;;;;;;28.27;27.10;;;3.00;1.00;;;;;;5094512;28;20189;-78
2020/12/26 08:10:11;;;;;;;33.50;32.03;;;3.10;1.00;;;;;;5046285;28;20185;-78
2020/12/26 08:13:20;;;;;;;35.47;33.88;;;3.10;1.00;;;;;;5093302;28;20236;-78
2020/12/26 08:19:08;;;;;;;27.42;25.52;;;3.20;1.00;;;;;;5417480;23;20236;-79
2020/12/26 08:21:33;;;;;;;28.37;26.90;;;3.20;1.00;;;;;;5089453;28;20231;-78
2020/12/26 08:24:01;;;;;;;24.37;23.00;;;3.20;1.00;;;;;;5090137;28;20158;-78
2020/12/26 08:26:28;;;;;;;24.35;22.70;;;3.30;1.00;;;;;;5089533;28;20239;-78
2020/12/26 08:29:06;;;;;;;25.10;23.60;;;3.30;1.00;;;;;;5064332;28;20173;-78
2020/12/26 08:31:35;;;;;;;27.65;26.15;;;3.30;1.00;;;;;;5062455;28;20522;-78
2020/12/26 08:34:29;;;;;;;26.52;25.15;;;3.30;1.00;;;;;;5064667;28;20166;-78
2020/12/26 08:37:12;;;;;;;25.55;23.58;;;3.30;1.00;;;;;;5066162;28;20189;-78
2020/12/26 08:39:42;;;;;;;29.10;27.25;;;3.30;1.00;;;;;;5066125;28;20206;-78
2020/12/26 08:42:30;;;;;;;22.42;21.23;;;3.40;1.00;;;;;;5067188;28;20200;-78
2020/12/26 08:44:57;;;;;;;28.00;26.45;;;3.40;1.00;;;;;;5067936;28;20182;-78
2020/12/26 08:47:32;;;;;;;28.35;26.75;;;3.40;1.00;;;;;;5060897;28;20271;-78
2020/12/26 08:50:01;;;;;;;32.28;30.23;;;3.50;1.00;;;;;;5054844;28;20192;-78
2020/12/26 08:52:30;;;;;;;28.83;27.20;;;3.50;1.00;;;;;;5053289;28;20650;-78
2020/12/26 08:55:09;;;;;;;28.70;26.92;;;3.50;1.00;;;;;;5056571;28;20181;-78
2020/12/26 08:57:59;;;;;;;32.38;30.55;;;3.50;1.00;;;;;;5055042;28;20210;-78
2020/12/26 09:00:26;;;;;;;31.63;29.83;;;3.50;1.00;;;;;;5036664;28;20640;-78
2020/12/26 09:03:21;;;;;;;29.67;28.08;;;3.50;1.00;;;;;;5054625;28;20154;-78
2020/12/26 09:06:26;;;;;;;31.02;29.42;;;3.50;1.00;;;;;;5048239;28;20169;-78
2020/12/26 09:09:18;;;;;;;35.20;32.75;;;3.40;1.00;;;;;;5521317;23;20647;-78
2020/12/26 09:11:45;;;;;;;28.85;27.23;;;3.40;1.00;;;;;;5093907;28;20164;-78
2020/12/26 09:14:16;;;;;;;29.73;27.67;;;3.40;1.00;;;;;;5092574;28;20192;-78
2020/12/26 09:16:41;;;;;;;26.48;24.85;;;3.50;1.00;;;;;;5094507;28;20161;-78
2020/12/26 11:36:26;;;;;;;42.60;40.28;;;4.70;1.00;;;;;;5837006;23;20232;-78
2020/12/26 12:09:56;;;;;;;36.90;34.58;;;5.00;1.00;;;;;;5914594;23;20211;-78
2020/12/26 12:33:38;;;;;;;42.83;40.10;;;5.00;1.00;;;;;;5355911;23;20193;-78
2020/12/26 12:43:50;;;;;;;42.85;40.10;;;5.00;1.00;;;;;;5487160;23;20239;-78
2020/12/26 12:46:16;;;;;;;47.42;44.47;;;5.00;1.00;;;;;;5075057;28;20179;-79
2020/12/26 12:48:42;;;;;;;43.50;40.63;;;5.20;1.00;;;;;;5178596;23;20319;-79
2020/12/26 12:51:08;;;;;;;51.23;48.33;;;5.10;1.00;;;;;;5094439;28;20179;-78
2020/12/26 12:53:33;;;;;;;46.05;43.25;;;5.20;1.00;;;;;;5093788;28;20169;-78
2020/12/26 12:55:59;;;;;;;40.30;37.90;;;5.20;1.00;;;;;;5093582;28;20210;-78
2020/12/26 12:58:25;;;;;;;41.40;38.37;;;5.30;1.00;;;;;;5095829;28;20222;-79
2020/12/26 13:00:50;;;;;;;52.03;49.13;;;5.30;1.00;;;;;;5076784;28;20169;-79
2020/12/26 13:03:16;;;;;;;44.27;41.57;;;5.30;1.00;;;;;;5095400;28;20164;-79
2020/12/26 13:05:42;;;;;;;42.63;40.00;;;5.30;1.00;;;;;;5096685;28;20196;-78
2020/12/26 13:08:07;;;;;;;41.60;39.03;;;5.30;1.00;;;;;;5076509;28;20217;-78
2020/12/26 13:10:33;;;;;;;42.20;39.57;;;5.20;1.00;;;;;;5095511;28;20630;-78
2020/12/26 13:12:58;;;;;;;50.03;47.20;;;5.20;1.00;;;;;;5094534;28;20175;-78
2020/12/26 13:15:24;;;;;;;36.30;33.40;;;5.30;1.00;;;;;;5095877;28;20254;-78
2020/12/26 13:17:49;;;;;;;39.33;36.93;;;5.20;1.00;;;;;;5134707;23;20339;-78
2020/12/26 13:20:15;;;;;;;39.93;37.57;;;5.20;1.00;;;;;;5075367;28;20169;-78
2020/12/26 13:22:40;;;;;;;45.40;42.63;;;5.20;1.00;;;;;;5073892;28;20252;-78
2020/12/26 13:25:07;;;;;;;46.00;43.37;;;5.20;1.00;;;;;;5074222;28;20173;-78
2020/12/26 13:27:34;;;;;;;50.45;47.85;;;5.20;1.00;;;;;;5074504;28;20192;-78
2020/12/26 13:30:00;;;;;;;43.85;41.45;;;5.30;1.00;;;;;;5071650;28;20162;-78
2020/12/26 13:32:26;;;;;;;40.53;37.63;;;5.20;1.00;;;;;;5077354;28;20169;-78
2020/12/26 13:34:52;;;;;;;41.03;38.83;;;5.30;1.00;;;;;;5077259;28;20153;-78
2020/12/26 13:37:18;;;;;;;39.13;36.70;;;5.30;1.00;;;;;;5074853;28;20192;-78
2020/12/26 13:39:43;;;;;;;42.87;39.70;;;5.40;1.00;;;;;;5074233;28;20205;-78
2020/12/26 13:42:10;;;;;;;36.50;34.10;;;5.30;1.00;;;;;;5074012;28;20166;-79
2020/12/26 13:44:35;;;;;;;32.05;29.77;;;5.30;1.00;;;;;;5076299;28;20172;-78
2020/12/26 13:47:01;;;;;;;35.50;33.37;;;5.30;1.00;;;;;;5080316;28;20197;-78
2020/12/26 13:49:26;;;;;;;33.27;31.20;;;5.30;1.00;;;;;;5080553;28;20177;-78
2020/12/26 13:51:52;;;;;;;32.93;30.40;;;5.20;1.00;;;;;;5078042;28;20176;-78
2020/12/26 13:54:19;;;;;;;32.57;30.50;;;5.30;1.00;;;;;;5081637;28;20197;-78
2020/12/26 13:56:45;;;;;;;33.83;31.52;;;5.20;1.00;;;;;;5087799;28;20207;-78
2020/12/26 13:59:10;;;;;;;29.70;27.90;;;5.20;1.00;;;;;;5091203;28;20193;-78
2020/12/26 14:01:52;;;;;;;38.93;36.73;;;5.20;1.00;;;;;;5094747;28;20416;-79
2020/12/26 14:04:28;;;;;;;35.42;33.30;;;5.20;1.00;;;;;;5086115;28;20189;-79
2020/12/26 14:06:57;;;;;;;35.67;33.10;;;5.20;1.00;;;;;;5093289;28;20197;-79
2020/12/26 14:09:52;;;;;;;39.50;37.20;;;5.20;1.00;;;;;;5090363;28;20181;-79
2020/12/26 14:12:25;;;;;;;32.30;30.50;;;5.20;1.00;;;;;;5092337;28;20208;-79
2020/12/26 14:14:56;;;;;;;29.25;27.55;;;5.20;1.00;;;;;;5091284;28;20660;-78
2020/12/26 14:17:23;;;;;;;33.60;31.27;;;5.20;1.00;;;;;;5089353;28;20204;-78
2020/12/26 14:19:50;;;;;;;35.05;33.05;;;5.10;1.00;;;;;;5088669;28;20586;-78
2020/12/26 14:22:41;;;;;;;33.63;30.60;;;5.10;1.00;;;;;;5092696;28;20184;-79
2020/12/26 14:25:13;;;;;;;36.70;34.55;;;5.10;1.00;;;;;;5090456;28;20179;-78
2020/12/26 14:28:03;;;;;;;28.48;26.80;;;5.10;1.00;;;;;;5095561;28;20190;-79
2020/12/26 14:30:31;;;;;;;27.23;25.42;;;5.10;1.00;;;;;;5094475;28;20229;-78
2020/12/26 14:32:58;;;;;;;26.90;25.30;;;5.10;1.00;;;;;;5086832;28;20282;-78
2020/12/26 14:35:24;;;;;;;36.70;35.00;;;5.20;1.00;;;;;;5086630;28;20177;-78
2020/12/26 14:38:03;;;;;;;32.47;30.80;;;5.10;1.00;;;;;;5081326;28;20191;-78
2020/12/26 14:40:36;;;;;;;34.20;32.65;;;5.00;1.00;;;;;;5087186;28;20193;-79
2020/12/26 14:43:13;;;;;;;40.08;38.25;;;5.00;1.00;;;;;;5079846;28;20623;-78
2020/12/26 14:45:39;;;;;;;37.03;35.05;;;5.00;1.00;;;;;;5206955;23;20248;-79
2020/12/26 15:58:10;;;;;;;32.88;31.15;;;4.90;1.00;;;;;;5519890;23;20240;-79
2020/12/26 16:01:22;;;;;;;29.55;27.80;;;4.90;1.00;;;;;;5090147;28;20165;-79
2020/12/26 16:09:26;;;;;;;33.40;31.70;;;4.80;1.00;;;;;;5091161;28;20272;-79
2020/12/26 16:11:52;;;;;;;27.43;25.80;;;4.80;1.00;;;;;;5096665;28;20188;-78
2020/12/26 16:14:18;;;;;;;28.23;26.70;;;4.90;1.00;;;;;;5095603;28;20408;-79
2020/12/26 16:19:44;;;;;;;30.77;29.20;;;4.80;1.00;;;;;;5808154;23;20237;-78
2020/12/26 16:22:09;;;;;;;38.93;36.93;;;4.80;1.00;;;;;;5073705;28;20218;-74
2020/12/26 16:24:35;;;;;;;44.03;42.20;;;4.70;1.00;;;;;;5072487;28;20200;-74
2020/12/26 16:27:01;;;;;;;35.40;33.60;;;4.80;1.00;;;;;;5070669;28;20181;-74
2020/12/26 16:29:26;;;;;;;31.67;29.60;;;4.80;1.00;;;;;;5072773;28;20180;-73
2020/12/26 16:31:52;;;;;;;39.90;36.60;;;4.70;1.00;;;;;;5072624;28;20174;-73
2020/12/26 16:34:18;;;;;;;33.27;31.07;;;4.70;1.00;;;;;;5072556;28;20244;-74
2020/12/26 16:36:44;;;;;;;32.28;30.17;;;4.70;1.00;;;;;;5071977;28;20204;-75
2020/12/26 16:39:10;;;;;;;31.40;29.60;;;4.70;1.00;;;;;;5073023;28;20197;-76
2020/12/26 16:41:40;;;;;;;33.13;31.43;;;4.70;1.00;;;;;;5072666;28;20913;-71
2020/12/26 16:44:06;;;;;;;35.17;33.20;;;4.70;1.00;;;;;;5071673;28;20173;-71
2020/12/26 16:46:32;;;;;;;28.17;26.48;;;4.70;1.00;;;;;;5071510;28;20185;-71
2020/12/26 16:48:58;;;;;;;26.50;24.80;;;4.70;1.00;;;;;;5071666;28;20169;-72
2020/12/26 16:51:25;;;;;;;26.85;25.02;;;4.70;1.00;;;;;;5071413;28;20177;-72
2020/12/26 16:53:51;;;;;;;23.88;22.15;;;4.70;1.00;;;;;;5071125;28;20255;-72
2020/12/26 16:56:18;;;;;;;34.90;33.03;;;4.70;1.00;;;;;;5071347;28;20256;-72
2020/12/26 16:58:45;;;;;;;31.92;29.65;;;4.70;1.00;;;;;;5069871;28;20209;-71
2020/12/26 17:01:21;;;;;;;33.65;32.08;;;4.70;1.00;;;;;;5070099;28;20172;-71
2020/12/26 17:03:48;;;;;;;31.75;30.00;;;4.60;1.00;;;;;;5071358;28;20220;-71
2020/12/26 17:06:18;;;;;;;28.70;26.85;;;4.70;1.00;;;;;;5070957;28;20175;-72
2020/12/26 17:08:44;;;;;;;32.53;30.40;;;4.70;1.00;;;;;;5071325;28;20283;-71
2020/12/26 17:11:11;;;;;;;32.05;29.80;;;4.70;1.00;;;;;;5071146;28;20172;-71
2020/12/26 17:13:39;;;;;;;29.40;27.50;;;4.70;1.00;;;;;;5071472;28;20588;-71
2020/12/26 17:16:12;;;;;;;25.48;23.88;;;4.70;1.00;;;;;;5071361;28;20246;-71
2020/12/26 17:18:39;;;;;;;38.03;36.03;;;4.70;1.00;;;;;;5071044;28;20231;-71
2020/12/26 17:21:16;;;;;;;38.58;36.38;;;4.70;1.00;;;;;;5070806;28;20189;-72
2020/12/26 17:23:42;;;;;;;30.77;29.17;;;4.70;1.00;;;;;;5071049;28;20665;-72
2020/12/26 17:26:34;;;;;;;30.35;28.50;;;4.70;1.00;;;;;;5071061;28;20173;-71
2020/12/26 17:29:00;;;;;;;34.30;32.10;;;4.70;1.00;;;;;;5055189;28;20246;-71
2020/12/26 17:31:26;;;;;;;36.07;34.27;;;4.70;1.00;;;;;;5050123;28;20177;-71
2020/12/26 17:33:54;;;;;;;36.78;34.67;;;4.70;1.00;;;;;;5051057;28;20257;-71
2020/12/26 17:36:20;;;;;;;36.70;34.65;;;4.70;1.00;;;;;;5048021;28;20166;-72
2020/12/26 17:38:47;;;;;;;31.08;29.30;;;4.80;1.00;;;;;;5050631;28;20267;-71
2020/12/26 17:41:19;;;;;;;34.75;32.90;;;4.80;1.00;;;;;;5050736;28;20250;-71
2020/12/26 17:43:45;;;;;;;33.88;31.60;;;4.80;1.00;;;;;;5048630;28;20644;-71